Time;durP1;ratioP1;P1;durP2;ratioP2;P2;SDS_P1;SDS_P2;PMS_P1;PMS_P2;Temp;Humidity;BMP_temperature;BMP_pressure;BME280_temperature;BME280_humidity;BME280_pressure;Samples;Min_cycle;Max_cycle;Signal;HPM_P1;HPM_P2
2021/12/04 00:02:04;;;;;;;37.10;26.10;;;5.30;99.90;;;;;;5075096;28;20058;-81
2021/12/04 00:04:33;;;;;;;42.35;25.88;;;6.20;99.90;;;;;;5058009;28;20079;-81
2021/12/04 00:07:00;;;;;;;34.53;24.65;;;5.50;99.90;;;;;;5058265;28;20546;-81
2021/12/04 00:09:26;;;;;;;36.47;25.00;;;6.10;99.90;;;;;;5057622;28;20131;-81
2021/12/04 00:11:57;;;;;;;35.60;25.05;;;6.40;99.90;;;;;;5055202;28;20044;-81
2021/12/04 00:14:23;;;;;;;35.33;26.23;;;5.80;99.90;;;;;;5026534;28;20028;-81
2021/12/04 00:16:49;;;;;;;39.72;26.98;;;6.20;99.90;;;;;;5092389;28;20039;-80
2021/12/04 00:19:18;;;;;;;38.85;28.30;;;5.50;99.90;;;;;;5090624;28;20549;-81
2021/12/04 00:21:46;;;;;;;42.78;27.90;;;5.50;99.90;;;;;;5092039;28;20434;-80
2021/12/04 00:24:14;;;;;;;42.83;27.92;;;5.80;99.90;;;;;;5040712;28;20043;-80
2021/12/04 00:26:42;;;;;;;39.72;27.63;;;5.70;99.90;;;;;;5091101;28;20043;-81
2021/12/04 00:29:11;;;;;;;46.28;28.23;;;5.50;99.90;;;;;;5092487;28;20499;-80
2021/12/04 00:31:37;;;;;;;39.58;26.95;;;5.50;99.90;;;;;;5091191;28;20138;-80
2021/12/04 00:34:04;;;;;;;45.45;27.63;;;5.50;99.90;;;;;;5091064;28;20044;-81
2021/12/04 00:50:07;;;;;;;45.47;27.70;;;5.50;99.90;;;;;;5073918;28;20391;-80
2021/12/04 00:52:33;;;;;;;48.50;29.00;;;5.40;99.90;;;;;;5095966;28;20558;-80
2021/12/04 00:55:06;;;;;;;46.25;28.80;;;5.50;99.90;;;;;;5094587;28;20433;-80
2021/12/04 00:57:32;;;;;;;43.00;27.73;;;5.50;99.90;;;;;;5077622;28;20454;-81
2021/12/04 01:00:01;;;;;;;48.05;29.00;;;6.30;99.90;;;;;;5094672;28;20374;-81
2021/12/04 01:02:29;;;;;;;46.95;29.40;;;5.50;99.90;;;;;;5095005;28;20043;-81
2021/12/04 01:04:57;;;;;;;46.35;27.92;;;5.80;99.90;;;;;;5103748;28;20036;-81
2021/12/04 01:07:24;;;;;;;45.17;28.25;;;5.50;99.90;;;;;;5094300;28;20074;-81
2021/12/04 01:09:51;;;;;;;46.28;28.65;;;4.90;99.90;;;;;;5095874;28;20040;-81
2021/12/04 01:12:17;;;;;;;50.10;28.23;;;5.90;99.90;;;;;;5077248;28;20526;-81
2021/12/04 01:14:52;;;;;;;45.28;28.38;;;6.50;99.90;;;;;;5078116;28;20127;-81
2021/12/04 01:17:18;;;;;;;45.47;28.02;;;5.50;99.90;;;;;;5094442;28;20046;-81
2021/12/04 01:19:44;;;;;;;48.15;29.40;;;6.40;99.90;;;;;;5095518;28;20472;-81
2021/12/04 01:22:11;;;;;;;49.15;28.55;;;5.50;99.90;;;;;;5094096;28;20087;-80
2021/12/04 01:24:37;;;;;;;47.72;28.33;;;5.50;99.90;;;;;;5107634;28;20032;-80
2021/12/04 01:27:07;;;;;;;58.55;30.08;;;5.50;99.90;;;;;;5060679;28;20476;-80
2021/12/04 01:29:36;;;;;;;52.08;30.38;;;5.50;99.90;;;;;;5060360;28;20046;-80
2021/12/04 01:32:06;;;;;;;50.58;29.02;;;5.50;99.90;;;;;;5066549;28;20033;-80
2021/12/04 01:34:34;;;;;;;50.67;30.33;;;5.40;99.90;;;;;;5074105;28;20097;-81
2021/12/04 01:37:03;;;;;;;50.45;29.40;;;5.50;99.90;;;;;;5057127;28;20181;-81
2021/12/04 01:39:29;;;;;;;51.33;29.38;;;5.40;99.90;;;;;;5040604;28;20040;-81
2021/12/04 01:41:55;;;;;;;47.95;28.25;;;6.10;99.90;;;;;;5074653;28;20036;-81
2021/12/04 01:44:21;;;;;;;54.92;29.35;;;5.50;99.90;;;;;;5056843;28;20047;-81
2021/12/04 01:46:46;;;;;;;51.88;29.27;;;6.00;99.90;;;;;;5056777;28;20093;-81
2021/12/04 01:49:12;;;;;;;50.45;28.38;;;6.20;99.90;;;;;;5076324;28;20036;-81
2021/12/04 01:51:38;;;;;;;55.70;28.35;;;5.90;99.90;;;;;;5093790;28;20365;-81
2021/12/04 01:54:04;;;;;;;56.10;29.30;;;5.50;99.90;;;;;;5094569;28;20181;-81
2021/12/04 01:56:34;;;;;;;53.08;29.00;;;6.30;99.90;;;;;;5064447;28;20123;-81
2021/12/04 01:59:02;;;;;;;50.08;28.83;;;6.30;99.90;;;;;;5076805;28;20128;-80
2021/12/04 02:01:32;;;;;;;51.40;29.30;;;5.60;99.90;;;;;;5076561;28;20067;-80
2021/12/04 02:03:58;;;;;;;47.25;28.55;;;5.80;99.90;;;;;;5076484;28;20044;-81
2021/12/04 02:06:24;;;;;;;48.53;28.42;;;6.00;99.90;;;;;;5074628;28;20043;-81
2021/12/04 02:08:51;;;;;;;49.70;28.67;;;6.50;99.90;;;;;;5094406;28;20036;-81
2021/12/04 02:11:21;;;;;;;50.60;27.45;;;5.50;99.90;;;;;;5058590;28;20047;-81
2021/12/04 02:13:53;;;;;;;49.90;27.77;;;5.90;99.90;;;;;;5091894;28;20511;-81
2021/12/04 02:16:21;;;;;;;56.70;29.90;;;5.60;99.90;;;;;;5076623;28;20419;-81
2021/12/04 02:18:47;;;;;;;49.00;28.52;;;6.20;99.90;;;;;;5079568;28;20048;-81
2021/12/04 02:21:21;;;;;;;55.22;28.98;;;5.50;99.90;;;;;;5074083;28;20201;-81
2021/12/04 02:23:48;;;;;;;51.45;28.85;;;5.50;99.90;;;;;;5073421;28;20178;-81
2021/12/04 02:26:17;;;;;;;53.15;27.30;;;5.60;99.90;;;;;;5039971;28;20078;-81
2021/12/04 02:28:47;;;;;;;50.92;26.88;;;5.80;99.90;;;;;;5092359;28;20051;-81
2021/12/04 02:31:12;;;;;;;50.58;28.58;;;5.60;99.90;;;;;;5092773;28;20036;-81
2021/12/04 02:33:38;;;;;;;53.80;26.58;;;5.50;99.90;;;;;;5092893;28;20412;-81
2021/12/04 02:36:06;;;;;;;55.47;27.65;;;5.70;99.90;;;;;;5092475;28;20039;-81
2021/12/04 02:38:34;;;;;;;47.38;26.58;;;5.40;99.90;;;;;;5109886;28;20079;-81
2021/12/04 02:41:01;;;;;;;52.47;27.20;;;5.50;99.90;;;;;;5092577;28;20043;-81
2021/12/04 02:43:34;;;;;;;52.00;27.17;;;5.50;99.90;;;;;;5086070;28;20475;-81
2021/12/04 02:46:03;;;;;;;58.60;28.80;;;5.90;99.90;;;;;;5093903;28;20453;-81
2021/12/04 02:48:32;;;;;;;51.10;26.02;;;5.40;99.90;;;;;;5109839;28;20089;-81
2021/12/04 02:51:19;;;;;;;49.13;26.05;;;5.40;99.90;;;;;;5075473;28;20036;-81
2021/12/04 02:53:45;;;;;;;57.45;27.80;;;5.50;99.90;;;;;;5090822;28;20047;-81
2021/12/04 02:56:14;;;;;;;50.92;26.27;;;6.30;99.90;;;;;;5075657;28;20032;-81
2021/12/04 02:58:44;;;;;;;52.22;27.27;;;;;;;;;;5090514;28;20036;-81
2021/12/04 03:01:10;;;;;;;51.47;25.85;;;5.50;99.90;;;;;;5076413;28;20040;-81
2021/12/04 03:03:38;;;;;;;52.13;26.63;;;6.30;99.90;;;;;;5093930;28;20464;-81
2021/12/04 03:06:04;;;;;;;53.53;26.65;;;5.50;99.90;;;;;;5075693;28;20044;-81
2021/12/04 03:08:37;;;;;;;60.53;27.73;;;5.50;99.90;;;;;;5092297;28;20044;-81
2021/12/04 03:11:03;;;;;;;47.35;24.58;;;5.50;99.90;;;;;;5075273;28;20040;-81
2021/12/04 03:13:28;;;;;;;51.33;26.30;;;5.50;99.90;;;;;;5075045;28;20303;-81
2021/12/04 03:16:02;;;;;;;54.95;25.38;;;5.50;99.90;;;;;;5073693;28;20040;-81
2021/12/04 03:18:28;;;;;;;51.83;26.48;;;5.90;99.90;;;;;;5057284;28;20048;-81
2021/12/04 03:20:55;;;;;;;52.88;26.42;;;5.70;99.90;;;;;;5072879;28;20450;-81
2021/12/04 03:23:29;;;;;;;48.67;25.73;;;5.70;99.90;;;;;;5038369;28;20060;-81
2021/12/04 03:25:57;;;;;;;50.25;25.40;;;6.00;99.90;;;;;;5072836;28;20063;-81
2021/12/04 03:28:23;;;;;;;48.78;26.63;;;6.50;99.90;;;;;;5062152;28;20055;-81
2021/12/04 03:30:58;;;;;;;47.00;25.30;;;5.40;99.90;;;;;;5071934;28;20059;-81
2021/12/04 03:41:21;;;;;;;45.05;22.63;;;5.40;99.90;;;;;;5091788;28;20092;-81
2021/12/04 03:43:47;;;;;;;37.90;22.52;;;5.60;99.90;;;;;;5091855;28;20050;-81
2021/12/04 03:46:17;;;;;;;39.53;22.90;;;5.40;99.90;;;;;;5092529;28;20216;-81
2021/12/04 03:51:11;;;;;;;37.30;23.13;;;5.40;99.90;;;;;;5074567;28;20123;-81
2021/12/04 03:53:37;;;;;;;35.80;21.67;;;5.40;99.90;;;;;;5074678;28;20123;-81
2021/12/04 03:56:04;;;;;;;39.78;22.58;;;5.50;99.90;;;;;;5075029;28;20078;-81
2021/12/04 03:58:30;;;;;;;37.05;21.40;;;5.40;99.90;;;;;;5074886;28;20040;-81
2021/12/04 04:00:56;;;;;;;33.33;20.35;;;6.30;99.90;;;;;;5074470;28;20040;-81
2021/12/04 04:03:27;;;;;;;35.75;20.95;;;5.40;99.90;;;;;;5073977;28;20476;-81
2021/12/04 04:05:56;;;;;;;36.03;20.08;;;5.40;99.90;;;;;;5074723;28;20098;-81
2021/12/04 04:08:22;;;;;;;32.47;20.15;;;6.30;99.90;;;;;;5074642;28;20079;-81
2021/12/04 04:10:50;;;;;;;38.92;19.98;;;5.40;99.90;;;;;;5074858;28;20047;-81
2021/12/04 04:13:16;;;;;;;31.83;18.45;;;5.40;99.90;;;;;;5074395;28;20068;-81
2021/12/04 04:15:42;;;;;;;31.05;19.55;;;5.50;99.90;;;;;;5074682;28;20451;-81
2021/12/04 04:18:08;;;;;;;29.15;18.77;;;5.80;99.90;;;;;;5074562;28;20040;-81
2021/12/04 04:20:35;;;;;;;32.00;18.30;;;5.20;99.90;;;;;;5068866;28;20068;-81
2021/12/04 04:23:01;;;;;;;32.15;19.13;;;6.30;99.90;;;;;;5072159;28;20118;-81
2021/12/04 04:25:27;;;;;;;34.90;19.23;;;5.40;99.90;;;;;;5054341;28;20431;-81
2021/12/04 04:27:53;;;;;;;31.60;18.60;;;5.40;99.90;;;;;;5064582;28;20094;-82
2021/12/04 04:30:19;;;;;;;30.27;19.52;;;5.30;99.90;;;;;;5094477;28;20093;-81
2021/12/04 04:32:48;;;;;;;31.45;18.27;;;5.50;99.90;;;;;;5061621;28;20392;-81
2021/12/04 04:35:17;;;;;;;30.38;18.45;;;5.40;99.90;;;;;;5096665;28;20047;-81
2021/12/04 05:00:20;;;;;;;32.17;18.73;;;5.40;99.90;;;;;;5096145;28;20555;-81
2021/12/04 05:11:04;;;;;;;31.40;18.50;;;6.00;99.90;;;;;;5063428;28;20097;-81
2021/12/04 05:13:29;;;;;;;31.05;17.15;;;5.40;99.90;;;;;;5067329;28;20059;-81
2021/12/04 05:15:58;;;;;;;35.58;18.35;;;5.40;99.90;;;;;;5075596;28;20033;-81
2021/12/04 05:21:06;;;;;;;35.20;18.23;;;5.40;99.90;;;;;;5057512;28;20080;-81
2021/12/04 05:23:40;;;;;;;33.15;18.60;;;5.30;99.90;;;;;;5078508;28;20052;-81
2021/12/04 05:26:09;;;;;;;32.85;18.08;;;5.40;99.90;;;;;;5094231;28;20058;-81
2021/12/04 05:28:35;;;;;;;32.80;18.58;;;5.40;99.90;;;;;;5104623;28;20094;-81
2021/12/04 05:31:02;;;;;;;29.98;17.63;;;5.30;99.90;;;;;;5077072;28;20040;-81
2021/12/04 05:33:30;;;;;;;32.58;17.40;;;5.40;99.90;;;;;;5077123;28;20032;-81
2021/12/04 05:35:57;;;;;;;35.20;18.30;;;5.40;99.90;;;;;;5095206;28;20046;-81
2021/12/04 05:38:24;;;;;;;35.17;18.05;;;5.40;99.90;;;;;;5077305;28;20063;-81
2021/12/04 05:40:50;;;;;;;28.75;17.48;;;5.40;99.90;;;;;;5091732;28;20089;-81
2021/12/04 05:43:18;;;;;;;30.08;17.38;;;5.40;99.90;;;;;;5095456;28;20122;-81
2021/12/04 05:45:52;;;;;;;36.75;17.83;;;6.00;99.90;;;;;;5093747;28;20089;-81
2021/12/04 05:56:25;;;;;;;34.78;17.88;;;5.40;99.90;;;;;;5077902;28;20438;-81
2021/12/04 05:59:06;;;;;;;28.63;17.15;;;5.80;99.90;;;;;;5061339;28;20048;-81
2021/12/04 06:01:32;;;;;;;31.42;15.95;;;5.90;99.90;;;;;;5075631;28;20040;-81
2021/12/04 06:03:58;;;;;;;27.90;17.13;;;5.00;99.90;;;;;;5076914;28;20040;-81
2021/12/04 06:06:24;;;;;;;26.52;16.98;;;5.40;99.90;;;;;;5059742;28;20044;-81
2021/12/04 06:08:52;;;;;;;28.17;16.80;;;6.00;99.90;;;;;;5059429;28;20138;-81
2021/12/04 06:11:18;;;;;;;30.25;17.48;;;5.40;99.90;;;;;;5076352;28;20054;-81
2021/12/04 06:13:44;;;;;;;27.30;16.95;;;5.40;99.90;;;;;;5092694;28;20101;-81
2021/12/04 06:16:10;;;;;;;28.30;17.30;;;5.60;99.90;;;;;;5057749;28;20469;-81
2021/12/04 06:18:36;;;;;;;29.33;16.88;;;5.50;99.90;;;;;;5056276;28;20044;-81
2021/12/04 06:23:47;;;;;;;27.90;17.10;;;5.50;99.90;;;;;;5073635;28;20052;-81
2021/12/04 06:26:13;;;;;;;28.55;17.15;;;5.40;99.90;;;;;;5073117;28;20130;-81
2021/12/04 06:28:40;;;;;;;28.88;16.50;;;5.40;99.90;;;;;;5070117;28;20090;-81
2021/12/04 06:31:08;;;;;;;29.35;16.77;;;5.50;99.90;;;;;;5092924;28;20056;-81
2021/12/04 06:33:34;;;;;;;27.30;17.17;;;6.00;99.90;;;;;;5092619;28;20044;-81
2021/12/04 06:36:00;;;;;;;29.77;17.70;;;5.70;99.90;;;;;;5092844;28;20040;-81
2021/12/04 06:38:26;;;;;;;30.48;17.40;;;5.50;99.90;;;;;;5075700;28;20126;-81
2021/12/04 06:40:52;;;;;;;28.27;17.55;;;5.80;99.90;;;;;;5059638;28;20040;-81
2021/12/04 06:43:19;;;;;;;26.50;17.20;;;5.50;99.90;;;;;;5083048;28;20055;-81
2021/12/04 06:45:51;;;;;;;29.25;17.25;;;5.40;99.90;;;;;;5092616;28;20047;-81
2021/12/04 06:48:22;;;;;;;33.08;17.35;;;5.90;99.90;;;;;;5092541;28;20391;-81
2021/12/04 06:50:59;;;;;;;29.35;17.17;;;5.40;99.90;;;;;;5092885;28;20036;-81
2021/12/04 06:53:32;;;;;;;29.90;17.15;;;6.00;99.90;;;;;;5093304;28;20044;-81
2021/12/04 06:56:02;;;;;;;30.70;17.23;;;5.50;99.90;;;;;;5075928;28;20039;-81
2021/12/04 06:58:29;;;;;;;25.25;16.23;;;6.10;99.90;;;;;;5075616;28;20065;-81
2021/12/04 07:00:55;;;;;;;30.73;17.20;;;5.40;99.90;;;;;;5076575;28;20075;-81
2021/12/04 07:03:21;;;;;;;31.35;17.15;;;5.50;99.90;;;;;;5058902;28;20097;-81
2021/12/04 07:05:47;;;;;;;28.80;16.25;;;5.10;99.90;;;;;;5092382;28;20135;-81
2021/12/04 07:08:14;;;;;;;29.63;17.05;;;5.40;99.90;;;;;;5092234;28;20056;-81
2021/12/04 07:10:43;;;;;;;30.23;17.75;;;5.70;99.90;;;;;;5093583;28;20491;-81
2021/12/04 07:13:09;;;;;;;34.25;17.63;;;5.40;99.90;;;;;;5075393;28;20048;-81
2021/12/04 07:15:40;;;;;;;34.75;17.17;;;6.00;99.90;;;;;;5092061;28;20050;-80
2021/12/04 07:18:06;;;;;;;36.08;17.08;;;6.10;99.90;;;;;;5092534;28;20043;-81
2021/12/04 07:20:32;;;;;;;31.08;17.35;;;5.20;99.90;;;;;;5092413;28;20044;-80
2021/12/04 07:23:01;;;;;;;33.30;16.80;;;6.00;99.90;;;;;;5090522;28;20052;-81
2021/12/04 07:25:27;;;;;;;30.98;16.60;;;5.70;99.90;;;;;;5092051;28;20040;-81
2021/12/04 07:27:54;;;;;;;30.13;17.42;;;5.40;99.90;;;;;;5087953;28;20055;-81
2021/12/04 07:30:22;;;;;;;33.58;17.20;;;6.20;99.90;;;;;;5092022;28;20043;-81
2021/12/04 07:32:48;;;;;;;32.30;17.05;;;5.50;99.90;;;;;;5088163;28;20047;-81
2021/12/04 07:35:15;;;;;;;32.05;18.08;;;5.40;99.90;;;;;;5075098;28;20051;-81
2021/12/04 07:37:42;;;;;;;33.65;17.88;;;5.40;99.90;;;;;;5058601;28;20032;-81
2021/12/04 07:40:09;;;;;;;36.08;18.02;;;5.40;99.90;;;;;;5091828;28;20119;-81
2021/12/04 07:42:35;;;;;;;38.05;17.77;;;5.40;99.90;;;;;;5092862;28;20044;-81
2021/12/04 07:45:01;;;;;;;35.17;17.63;;;5.40;99.90;;;;;;5074868;28;20087;-81
2021/12/04 07:47:27;;;;;;;31.17;17.52;;;5.40;99.90;;;;;;5093080;28;20090;-81
2021/12/04 07:49:56;;;;;;;33.63;17.52;;;6.10;99.90;;;;;;5056670;28;20064;-81
2021/12/04 07:52:22;;;;;;;37.22;18.15;;;5.40;99.90;;;;;;5092706;28;20046;-81
2021/12/04 07:54:49;;;;;;;35.53;17.38;;;5.90;99.90;;;;;;5074920;28;20045;-81
2021/12/04 07:57:16;;;;;;;32.53;18.10;;;5.70;99.90;;;;;;5074771;28;20036;-81
2021/12/04 07:59:45;;;;;;;34.50;18.00;;;5.40;99.90;;;;;;5058484;28;20067;-81
2021/12/04 08:02:12;;;;;;;33.03;18.30;;;4.90;99.90;;;;;;5074548;28;20032;-81
2021/12/04 08:04:41;;;;;;;33.08;17.52;;;5.40;99.90;;;;;;5093559;28;20048;-81
2021/12/04 08:07:06;;;;;;;35.83;16.60;;;6.50;99.90;;;;;;5077704;28;20047;-81
2021/12/04 08:09:32;;;;;;;34.50;17.27;;;5.80;99.90;;;;;;5061991;28;20119;-81
2021/12/04 08:11:58;;;;;;;35.53;17.90;;;6.10;99.90;;;;;;5078400;28;20062;-81
2021/12/04 08:14:24;;;;;;;32.80;17.58;;;5.00;99.90;;;;;;5096699;28;20498;-81
2021/12/04 08:16:55;;;;;;;35.33;18.40;;;5.40;99.90;;;;;;5062082;28;20089;-81
2021/12/04 08:19:21;;;;;;;30.40;16.88;;;5.60;99.90;;;;;;5077102;28;20423;-81
2021/12/04 08:21:47;;;;;;;32.00;16.75;;;5.40;99.90;;;;;;5077035;28;20052;-81
2021/12/04 08:24:13;;;;;;;32.55;17.55;;;6.50;99.90;;;;;;5078730;28;20142;-81
2021/12/04 08:26:39;;;;;;;31.63;16.25;;;5.40;99.90;;;;;;5096498;28;20515;-81
2021/12/04 08:29:08;;;;;;;33.40;16.40;;;5.60;99.90;;;;;;5062033;28;20388;-81
2021/12/04 08:31:34;;;;;;;28.02;16.45;;;5.50;99.90;;;;;;5061563;28;20048;-81
2021/12/04 08:34:02;;;;;;;31.05;16.45;;;5.50;99.90;;;;;;5077163;28;20044;-81
2021/12/04 08:36:28;;;;;;;25.77;15.43;;;5.40;99.90;;;;;;5096713;28;20039;-81
2021/12/04 08:38:57;;;;;;;26.35;16.25;;;5.80;99.90;;;;;;5077340;28;20035;-81
2021/12/04 08:41:23;;;;;;;27.35;16.63;;;5.50;99.90;;;;;;5078347;28;20104;-81
2021/12/04 08:43:49;;;;;;;27.50;15.35;;;5.50;99.90;;;;;;5061823;28;20044;-81
2021/12/04 08:46:20;;;;;;;26.23;15.60;;;5.20;99.90;;;;;;5078111;28;20040;-81
2021/12/04 08:48:47;;;;;;;24.00;15.52;;;6.00;99.90;;;;;;5061207;28;20044;-81
2021/12/04 08:51:16;;;;;;;26.58;15.82;;;5.50;99.90;;;;;;5068410;28;20461;-81
2021/12/04 08:53:44;;;;;;;24.55;15.40;;;5.50;99.90;;;;;;5058642;28;20481;-81
2021/12/04 08:56:11;;;;;;;28.45;15.15;;;6.50;99.90;;;;;;5077807;28;20480;-81
2021/12/04 08:58:39;;;;;;;27.25;15.18;;;5.50;99.90;;;;;;5060935;28;20039;-81
2021/12/04 09:01:13;;;;;;;25.95;14.50;;;6.20;99.90;;;;;;5077454;28;20527;-81
2021/12/04 09:03:46;;;;;;;25.35;14.73;;;5.50;99.90;;;;;;5095732;28;20377;-81
2021/12/04 09:06:14;;;;;;;24.08;14.55;;;5.50;99.90;;;;;;5095453;28;20044;-81
2021/12/04 09:08:40;;;;;;;22.27;13.80;;;5.50;99.90;;;;;;5077617;28;20506;-81
2021/12/04 09:11:14;;;;;;;23.00;14.63;;;6.20;99.90;;;;;;5077660;28;20042;-81
2021/12/04 09:13:41;;;;;;;25.08;14.02;;;5.50;99.90;;;;;;5094992;28;20043;-81
2021/12/04 09:16:08;;;;;;;22.52;13.40;;;6.20;99.90;;;;;;5077232;28;20032;-81
2021/12/04 09:18:35;;;;;;;21.58;14.75;;;5.50;99.90;;;;;;5077653;28;20040;-81
2021/12/04 09:21:04;;;;;;;23.20;13.63;;;5.50;99.90;;;;;;5091374;28;20070;-81
2021/12/04 09:23:34;;;;;;;21.10;13.25;;;5.50;99.90;;;;;;5090340;28;20096;-80
2021/12/04 09:26:04;;;;;;;22.15;12.52;;;5.40;99.90;;;;;;5057494;28;20374;-80
2021/12/04 09:31:36;;;;;;;20.88;12.07;;;6.10;99.90;;;;;;5072504;28;20104;-80
2021/12/04 09:34:35;;;;;;;18.30;11.18;;;6.40;99.90;;;;;;5063457;28;20033;-81
2021/12/04 10:12:43;;;;;;;16.02;11.98;;;5.70;99.90;;;;;;5076373;28;20135;-81
2021/12/04 10:33:54;;;;;;;15.55;11.32;;;5.90;99.90;;;;;;5073658;28;20078;-81
2021/12/04 10:36:41;;;;;;;14.02;10.63;;;6.20;99.90;;;;;;5022721;28;20481;-81
2021/12/04 10:39:09;;;;;;;16.48;11.32;;;6.70;99.90;;;;;;5056057;28;20048;-81
2021/12/04 10:41:43;;;;;;;15.40;10.88;;;6.00;99.90;;;;;;5038944;28;20125;-81
2021/12/04 10:44:18;;;;;;;14.85;10.40;;;6.50;99.90;;;;;;5046104;28;20055;-81
2021/12/04 10:47:06;;;;;;;15.63;11.65;;;6.00;99.90;;;;;;5036209;28;20587;-82
2021/12/04 10:50:04;;;;;;;15.95;10.93;;;6.10;99.90;;;;;;5058675;28;20128;-81
2021/12/04 10:55:20;;;;;;;14.32;10.98;;;6.50;99.90;;;;;;5075351;28;20063;-81
2021/12/04 11:00:37;;;;;;;13.35;10.43;;;6.00;99.90;;;;;;5073853;28;20044;-81
2021/12/04 11:21:13;;;;;;;15.68;10.85;;;6.20;99.90;;;;;;5053526;28;20056;-81
2021/12/04 11:40:48;;;;;;;16.35;11.52;;;6.20;99.90;;;;;;5056991;28;20086;-81
2021/12/04 11:43:18;;;;;;;17.90;11.40;;;6.10;99.90;;;;;;5071354;28;20048;-81
2021/12/04 11:48:50;;;;;;;18.20;11.45;;;6.10;99.90;;;;;;5055193;28;20052;-81
2021/12/04 11:51:22;;;;;;;19.63;11.27;;;6.30;99.90;;;;;;5054288;28;20055;-81
2021/12/04 11:53:49;;;;;;;16.77;11.48;;;6.20;99.90;;;;;;5065839;28;20047;-81
2021/12/04 11:56:46;;;;;;;14.77;10.60;;;6.30;99.90;;;;;;5057787;28;20068;-81
2021/12/04 11:59:24;;;;;;;16.95;11.82;;;6.10;99.90;;;;;;5071678;28;20143;-81
2021/12/04 12:01:59;;;;;;;15.85;11.20;;;6.20;99.90;;;;;;5058154;28;20043;-81
2021/12/04 12:04:46;;;;;;;17.67;10.98;;;6.20;99.90;;;;;;5067307;28;20036;-81
2021/12/04 12:07:34;;;;;;;16.67;11.65;;;6.10;99.90;;;;;;5091346;28;20044;-81
2021/12/04 12:10:08;;;;;;;16.80;11.45;;;5.70;99.90;;;;;;5074695;28;20043;-81
2021/12/04 12:12:38;;;;;;;16.17;10.95;;;6.10;99.90;;;;;;5091439;28;20073;-81
2021/12/04 12:15:24;;;;;;;15.73;11.30;;;6.20;99.90;;;;;;5074288;28;20425;-81
2021/12/04 12:17:51;;;;;;;19.42;12.23;;;6.10;99.90;;;;;;5074339;28;20055;-81
2021/12/04 12:20:36;;;;;;;18.20;12.55;;;6.80;99.90;;;;;;5066550;28;20043;-81
2021/12/04 12:23:06;;;;;;;17.83;12.23;;;6.10;99.90;;;;;;5074324;28;20052;-81
2021/12/04 12:34:11;;;;;;;22.45;14.15;;;6.10;99.90;;;;;;5092255;28;20048;-81
2021/12/04 12:36:37;;;;;;;23.92;14.57;;;5.90;99.90;;;;;;5073747;28;20485;-81
2021/12/04 12:39:23;;;;;;;23.13;14.07;;;7.10;99.90;;;;;;5074436;28;20052;-81
2021/12/04 12:42:02;;;;;;;23.42;14.48;;;6.30;99.90;;;;;;5073849;28;20048;-81
2021/12/04 12:44:30;;;;;;;22.48;14.45;;;6.70;99.90;;;;;;5057470;28;20043;-81
2021/12/04 12:47:18;;;;;;;22.73;14.73;;;6.20;99.90;;;;;;5074234;28;20040;-81
2021/12/04 12:49:45;;;;;;;23.98;15.02;;;6.20;99.90;;;;;;5075174;28;20430;-81
2021/12/04 12:52:20;;;;;;;24.27;14.73;;;6.30;99.90;;;;;;5060238;28;20074;-81
2021/12/04 12:55:08;;;;;;;25.45;15.80;;;6.20;99.90;;;;;;5069971;28;20388;-81
2021/12/04 12:57:42;;;;;;;24.27;15.15;;;6.20;99.90;;;;;;5040918;28;20045;-81
2021/12/04 13:12:04;;;;;;;25.88;15.85;;;6.10;99.90;;;;;;5095401;28;20418;-81
2021/12/04 13:14:32;;;;;;;26.40;16.67;;;6.10;99.90;;;;;;5076846;28;20094;-81
2021/12/04 13:17:01;;;;;;;25.58;16.00;;;6.90;99.90;;;;;;5094480;28;20032;-80
2021/12/04 13:19:28;;;;;;;28.85;16.65;;;6.10;99.90;;;;;;5077425;28;20039;-81
2021/12/04 13:22:02;;;;;;;23.67;16.17;;;6.30;99.90;;;;;;5077240;28;20065;-81
2021/12/04 13:24:35;;;;;;;26.75;16.88;;;6.20;99.90;;;;;;5084150;28;20412;-80
2021/12/04 13:29:39;;;;;;;32.08;18.55;;;6.30;99.90;;;;;;5094298;28;20434;-81
2021/12/04 13:32:06;;;;;;;31.58;19.48;;;6.10;99.90;;;;;;5077163;28;20048;-81
2021/12/04 13:34:35;;;;;;;33.90;19.63;;;6.10;99.90;;;;;;5093720;28;20051;-81
2021/12/04 13:37:01;;;;;;;29.98;19.35;;;6.80;99.90;;;;;;5093897;28;20078;-81
2021/12/04 13:39:31;;;;;;;30.48;19.50;;;6.20;99.90;;;;;;5110843;28;20510;-81
2021/12/04 13:42:01;;;;;;;34.85;20.35;;;6.10;99.90;;;;;;5077487;28;20511;-81
2021/12/04 13:44:31;;;;;;;36.47;21.15;;;6.20;99.90;;;;;;5077708;28;20083;-81
2021/12/04 13:47:04;;;;;;;33.80;20.75;;;6.20;99.90;;;;;;5093632;28;20438;-81
2021/12/04 13:50:00;;;;;;;37.22;22.25;;;6.70;99.90;;;;;;5077332;28;20087;-81
2021/12/04 13:52:31;;;;;;;37.88;22.27;;;6.20;99.90;;;;;;5110515;28;20044;-81
2021/12/04 13:55:05;;;;;;;37.80;20.92;;;6.30;99.90;;;;;;5093551;28;20036;-80
2021/12/04 13:57:40;;;;;;;39.08;21.45;;;7.00;99.90;;;;;;5075697;28;20063;-81
2021/12/04 14:00:08;;;;;;;36.08;22.17;;;6.50;99.90;;;;;;5061170;28;20040;-81
2021/12/04 14:02:34;;;;;;;43.67;22.30;;;6.20;99.90;;;;;;5075464;28;20043;-81
2021/12/04 14:05:08;;;;;;;36.67;21.70;;;6.90;99.90;;;;;;5069247;28;20443;-81
2021/12/04 14:07:35;;;;;;;41.45;22.85;;;6.90;99.90;;;;;;5040023;28;20498;-80
2021/12/04 14:10:12;;;;;;;45.97;23.35;;;6.50;99.90;;;;;;5056516;28;20074;-80
2021/12/04 14:12:41;;;;;;;42.22;23.13;;;6.20;99.90;;;;;;5056442;28;20028;-81
2021/12/04 14:15:09;;;;;;;44.28;24.50;;;6.20;99.90;;;;;;5042615;28;20127;-81
2021/12/04 14:17:35;;;;;;;39.90;22.55;;;6.10;99.90;;;;;;5059471;28;20055;-81
2021/12/04 14:20:05;;;;;;;39.42;21.92;;;6.10;99.90;;;;;;5093350;28;20040;-81
2021/12/04 14:22:33;;;;;;;44.42;24.13;;;6.10;99.90;;;;;;5093845;28;20509;-81
2021/12/04 14:25:28;;;;;;;42.13;22.15;;;6.30;99.90;;;;;;5076924;28;20048;-81
2021/12/04 14:28:01;;;;;;;45.22;23.30;;;6.10;99.90;;;;;;5075950;28;20032;-81
2021/12/04 14:30:34;;;;;;;44.22;22.55;;;6.50;99.90;;;;;;5054294;28;20089;-81
2021/12/04 14:33:09;;;;;;;42.95;21.98;;;6.20;99.90;;;;;;5057063;28;20032;-81
2021/12/04 14:35:52;;;;;;;46.78;23.45;;;6.90;99.90;;;;;;5056257;28;20071;-81
2021/12/04 14:38:27;;;;;;;48.35;24.02;;;6.30;99.90;;;;;;5056104;28;20047;-81
2021/12/04 14:41:01;;;;;;;40.97;23.30;;;6.20;99.90;;;;;;5061153;28;20040;-80
2021/12/04 14:43:32;;;;;;;44.55;23.55;;;6.60;99.90;;;;;;5075871;28;20089;-80
2021/12/04 14:46:00;;;;;;;43.50;22.92;;;6.20;99.90;;;;;;5087250;28;20070;-80
2021/12/04 14:48:34;;;;;;;43.03;23.60;;;6.50;99.90;;;;;;5058886;28;20504;-81
2021/12/04 14:51:21;;;;;;;46.17;23.00;;;6.10;99.90;;;;;;5072972;28;20504;-80
2021/12/04 14:53:59;;;;;;;44.80;23.55;;;6.50;99.90;;;;;;5075600;28;20044;-81
2021/12/04 14:56:32;;;;;;;44.92;23.67;;;6.70;99.90;;;;;;5092707;28;20039;-81
2021/12/04 14:58:59;;;;;;;51.33;23.92;;;6.20;99.90;;;;;;5092490;28;20032;-81
2021/12/04 15:01:32;;;;;;;48.28;23.92;;;6.60;99.90;;;;;;5091984;28;20076;-81
2021/12/04 15:04:02;;;;;;;;;;;6.20;99.90;;;;;;5092573;28;20047;-81
2021/12/04 15:06:33;;;;;;;50.25;24.98;;;6.10;99.90;;;;;;5073481;28;19916;-81
2021/12/04 15:09:03;;;;;;;51.45;24.95;;;6.20;99.90;;;;;;5075440;28;20434;-81
2021/12/04 15:11:34;;;;;;;48.97;24.92;;;6.10;99.90;;;;;;5075472;28;20071;-81
2021/12/04 15:14:11;;;;;;;47.47;25.58;;;6.20;99.90;;;;;;5074614;28;20070;-81
2021/12/04 15:16:44;;;;;;;51.10;25.77;;;6.20;99.90;;;;;;5093384;28;20040;-81
2021/12/04 15:19:25;;;;;;;51.05;26.20;;;6.20;99.90;;;;;;5074959;28;20036;-81
2021/12/04 15:21:58;;;;;;;53.78;26.00;;;6.10;99.90;;;;;;5091876;28;20223;-81
2021/12/04 15:24:28;;;;;;;54.60;26.75;;;6.30;99.90;;;;;;5092863;28;20135;-81
2021/12/04 15:27:02;;;;;;;51.72;26.52;;;6.10;99.90;;;;;;5108783;28;20229;-82
2021/12/04 15:29:33;;;;;;;52.15;26.02;;;6.10;99.90;;;;;;5075190;28;20105;-81
2021/12/04 15:32:01;;;;;;;54.13;25.40;;;5.80;99.90;;;;;;5091773;28;20118;-81
2021/12/04 15:34:44;;;;;;;51.95;27.60;;;6.10;99.90;;;;;;5091792;28;20089;-82
2021/12/04 15:37:40;;;;;;;53.13;26.73;;;6.30;99.90;;;;;;5074793;28;20078;-81
2021/12/04 15:40:35;;;;;;;54.45;27.60;;;6.10;99.90;;;;;;5066349;28;20118;-81
2021/12/04 15:45:32;;;;;;;53.45;26.50;;;6.10;99.90;;;;;;5077628;28;20050;-81
2021/12/04 15:48:30;;;;;;;54.83;27.67;;;6.10;99.90;;;;;;5074680;28;20083;-81
2021/12/04 15:53:58;;;;;;;55.63;28.10;;;6.10;99.90;;;;;;5043589;28;20052;-81
2021/12/04 15:56:43;;;;;;;54.38;28.48;;;6.10;99.90;;;;;;5048936;28;20035;-81
2021/12/04 15:59:29;;;;;;;53.50;27.45;;;6.10;99.90;;;;;;5074443;28;20032;-81
2021/12/04 16:01:58;;;;;;;59.80;29.35;;;6.10;99.90;;;;;;5074800;28;20047;-81
2021/12/04 16:04:30;;;;;;;52.53;28.17;;;6.10;99.90;;;;;;5091292;28;20044;-81
2021/12/04 16:07:01;;;;;;;48.10;25.98;;;6.10;99.90;;;;;;5074250;28;20052;-81
2021/12/04 16:09:31;;;;;;;57.05;28.20;;;6.10;99.90;;;;;;5073477;28;20127;-81
2021/12/04 16:12:05;;;;;;;50.30;27.00;;;5.90;99.90;;;;;;5091020;28;20096;-81